sensor_id;sensor_type;location;lat;lon;timestamp;temperature;humidity
42755;DHT22;28407;51.830;5.684;2023-05-09T00:00:25;18.70;76.10
42755;DHT22;28407;51.830;5.684;2023-05-09T00:02:26;18.60;76.10
42755;DHT22;28407;51.830;5.684;2023-05-09T00:04:28;18.60;76.10
42755;DHT22;28407;51.830;5.684;2023-05-09T00:06:29;18.60;76.20
42755;DHT22;28407;51.830;5.684;2023-05-09T00:08:31;18.60;76.20
42755;DHT22;28407;51.830;5.684;2023-05-09T00:10:32;18.60;76.20
42755;DHT22;28407;51.830;5.684;2023-05-09T00:12:33;18.50;76.20
42755;DHT22;28407;51.830;5.684;2023-05-09T00:14:33;18.50;76.30
42755;DHT22;28407;51.830;5.684;2023-05-09T00:16:34;18.50;76.30
42755;DHT22;28407;51.830;5.684;2023-05-09T00:18:36;18.50;76.40
42755;DHT22;28407;51.830;5.684;2023-05-09T00:20:37;18.50;76.40
42755;DHT22;28407;51.830;5.684;2023-05-09T00:22:40;18.50;76.50
42755;DHT22;28407;51.830;5.684;2023-05-09T00:24:41;18.40;76.50
42755;DHT22;28407;51.830;5.684;2023-05-09T00:26:41;18.40;76.50
42755;DHT22;28407;51.830;5.684;2023-05-09T00:28:42;18.40;76.60
42755;DHT22;28407;51.830;5.684;2023-05-09T00:30:43;18.40;76.60
42755;DHT22;28407;51.830;5.684;2023-05-09T00:32:43;18.40;76.60
42755;DHT22;28407;51.830;5.684;2023-05-09T00:34:44;18.40;76.70
42755;DHT22;28407;51.830;5.684;2023-05-09T00:36:45;18.40;76.70
42755;DHT22;28407;51.830;5.684;2023-05-09T00:38:45;18.40;76.70
42755;DHT22;28407;51.830;5.684;2023-05-09T00:40:46;18.40;76.70
42755;DHT22;28407;51.830;5.684;2023-05-09T00:42:47;18.40;76.80
42755;DHT22;28407;51.830;5.684;2023-05-09T00:44:48;18.40;76.80
42755;DHT22;28407;51.830;5.684;2023-05-09T00:46:48;18.40;76.80
42755;DHT22;28407;51.830;5.684;2023-05-09T00:48:49;18.40;76.80
42755;DHT22;28407;51.830;5.684;2023-05-09T00:50:51;18.40;76.80
42755;DHT22;28407;51.830;5.684;2023-05-09T00:52:52;18.40;76.90
42755;DHT22;28407;51.830;5.684;2023-05-09T00:54:54;18.40;76.90
42755;DHT22;28407;51.830;5.684;2023-05-09T00:56:54;18.40;76.90
42755;DHT22;28407;51.830;5.684;2023-05-09T00:58:55;18.40;76.90
42755;DHT22;28407;51.830;5.684;2023-05-09T01:00:56;18.30;77.00
42755;DHT22;28407;51.830;5.684;2023-05-09T01:02:57;18.40;77.10
42755;DHT22;28407;51.830;5.684;2023-05-09T01:04:58;18.30;77.00
42755;DHT22;28407;51.830;5.684;2023-05-09T01:07:09;18.30;77.00
42755;DHT22;28407;51.830;5.684;2023-05-09T01:09:22;18.30;77.10
42755;DHT22;28407;51.830;5.684;2023-05-09T01:13:40;18.30;77.10
42755;DHT22;28407;51.830;5.684;2023-05-09T01:15:50;18.30;77.10
42755;DHT22;28407;51.830;5.684;2023-05-09T01:17:58;18.30;77.10
42755;DHT22;28407;51.830;5.684;2023-05-09T01:22:11;18.30;77.20
42755;DHT22;28407;51.830;5.684;2023-05-09T01:24:46;18.30;77.20
42755;DHT22;28407;51.830;5.684;2023-05-09T01:27:10;18.30;77.30
42755;DHT22;28407;51.830;5.684;2023-05-09T01:29:37;18.30;77.30
42755;DHT22;28407;51.830;5.684;2023-05-09T01:31:43;18.30;77.40
42755;DHT22;28407;51.830;5.684;2023-05-09T01:33:47;18.30;78.00
42755;DHT22;28407;51.830;5.684;2023-05-09T01:35:51;18.30;77.40
42755;DHT22;28407;51.830;5.684;2023-05-09T01:37:53;18.30;77.40
42755;DHT22;28407;51.830;5.684;2023-05-09T01:39:57;18.30;77.50
42755;DHT22;28407;51.830;5.684;2023-05-09T01:42:01;18.30;77.50
42755;DHT22;28407;51.830;5.684;2023-05-09T01:44:05;18.30;77.50
42755;DHT22;28407;51.830;5.684;2023-05-09T01:46:08;18.30;77.50
42755;DHT22;28407;51.830;5.684;2023-05-09T01:48:09;18.30;77.60
42755;DHT22;28407;51.830;5.684;2023-05-09T01:50:11;18.30;77.60
42755;DHT22;28407;51.830;5.684;2023-05-09T01:52:14;18.30;77.60
42755;DHT22;28407;51.830;5.684;2023-05-09T01:54:16;18.30;77.70
42755;DHT22;28407;51.830;5.684;2023-05-09T01:56:18;18.30;77.70
42755;DHT22;28407;51.830;5.684;2023-05-09T01:58:21;18.30;77.80
42755;DHT22;28407;51.830;5.684;2023-05-09T02:00:23;18.20;77.70
42755;DHT22;28407;51.830;5.684;2023-05-09T02:02:26;18.20;77.80
42755;DHT22;28407;51.830;5.684;2023-05-09T02:04:28;18.20;77.80
42755;DHT22;28407;51.830;5.684;2023-05-09T02:06:31;18.20;77.80
42755;DHT22;28407;51.830;5.684;2023-05-09T02:08:32;18.20;77.90
42755;DHT22;28407;51.830;5.684;2023-05-09T02:10:34;18.20;77.90
42755;DHT22;28407;51.830;5.684;2023-05-09T02:12:35;18.20;77.90
42755;DHT22;28407;51.830;5.684;2023-05-09T02:14:35;18.20;77.90
42755;DHT22;28407;51.830;5.684;2023-05-09T02:16:36;18.20;77.90
42755;DHT22;28407;51.830;5.684;2023-05-09T02:18:38;18.20;77.90
42755;DHT22;28407;51.830;5.684;2023-05-09T02:20:39;18.20;78.00
42755;DHT22;28407;51.830;5.684;2023-05-09T02:22:42;18.20;78.00
42755;DHT22;28407;51.830;5.684;2023-05-09T02:24:43;18.20;78.00
42755;DHT22;28407;51.830;5.684;2023-05-09T02:26:47;18.20;78.10
42755;DHT22;28407;51.830;5.684;2023-05-09T02:28:48;18.10;78.00
42755;DHT22;28407;51.830;5.684;2023-05-09T02:30:50;18.10;78.10
42755;DHT22;28407;51.830;5.684;2023-05-09T02:32:59;18.10;78.10
42755;DHT22;28407;51.830;5.684;2023-05-09T02:35:01;18.10;78.20
42755;DHT22;28407;51.830;5.684;2023-05-09T02:37:04;18.10;78.20
42755;DHT22;28407;51.830;5.684;2023-05-09T02:39:04;18.10;78.20
42755;DHT22;28407;51.830;5.684;2023-05-09T02:41:05;18.10;78.20
42755;DHT22;28407;51.830;5.684;2023-05-09T02:43:06;18.10;78.20
42755;DHT22;28407;51.830;5.684;2023-05-09T02:45:07;18.10;78.20
42755;DHT22;28407;51.830;5.684;2023-05-09T02:47:09;18.00;78.20
42755;DHT22;28407;51.830;5.684;2023-05-09T02:49:10;18.00;78.20
42755;DHT22;28407;51.830;5.684;2023-05-09T02:51:11;18.00;78.20
42755;DHT22;28407;51.830;5.684;2023-05-09T02:53:11;18.00;78.20
42755;DHT22;28407;51.830;5.684;2023-05-09T02:55:14;18.00;78.20
42755;DHT22;28407;51.830;5.684;2023-05-09T02:57:16;18.00;78.90
42755;DHT22;28407;51.830;5.684;2023-05-09T02:59:17;18.00;78.20
42755;DHT22;28407;51.830;5.684;2023-05-09T03:01:18;18.00;78.20
42755;DHT22;28407;51.830;5.684;2023-05-09T03:03:19;18.00;78.90
42755;DHT22;28407;51.830;5.684;2023-05-09T03:05:21;18.00;78.20
42755;DHT22;28407;51.830;5.684;2023-05-09T03:07:22;18.00;78.30
42755;DHT22;28407;51.830;5.684;2023-05-09T03:09:23;18.00;78.20
42755;DHT22;28407;51.830;5.684;2023-05-09T03:11:23;18.00;78.30
42755;DHT22;28407;51.830;5.684;2023-05-09T03:13:24;18.00;78.30
42755;DHT22;28407;51.830;5.684;2023-05-09T03:15:25;18.00;78.30
42755;DHT22;28407;51.830;5.684;2023-05-09T03:17:26;18.00;78.30
42755;DHT22;28407;51.830;5.684;2023-05-09T03:19:27;18.00;78.30
42755;DHT22;28407;51.830;5.684;2023-05-09T03:21:27;18.00;78.30
42755;DHT22;28407;51.830;5.684;2023-05-09T03:23:29;18.00;78.30
42755;DHT22;28407;51.830;5.684;2023-05-09T03:25:29;18.00;78.30
42755;DHT22;28407;51.830;5.684;2023-05-09T03:27:30;18.00;78.30
42755;DHT22;28407;51.830;5.684;2023-05-09T03:29:31;18.00;78.30
42755;DHT22;28407;51.830;5.684;2023-05-09T03:31:33;18.00;78.30
42755;DHT22;28407;51.830;5.684;2023-05-09T03:33:34;18.00;78.40
42755;DHT22;28407;51.830;5.684;2023-05-09T03:35:35;17.90;78.30
42755;DHT22;28407;51.830;5.684;2023-05-09T03:37:36;18.00;78.30
42755;DHT22;28407;51.830;5.684;2023-05-09T03:39:38;17.90;78.20
42755;DHT22;28407;51.830;5.684;2023-05-09T03:41:38;17.90;78.20
42755;DHT22;28407;51.830;5.684;2023-05-09T03:43:41;17.90;78.20
42755;DHT22;28407;51.830;5.684;2023-05-09T03:45:42;17.90;78.20
42755;DHT22;28407;51.830;5.684;2023-05-09T03:47:44;17.90;78.20
42755;DHT22;28407;51.830;5.684;2023-05-09T03:49:46;17.90;78.30
42755;DHT22;28407;51.830;5.684;2023-05-09T03:51:47;17.90;78.30
42755;DHT22;28407;51.830;5.684;2023-05-09T03:53:50;17.80;78.30
42755;DHT22;28407;51.830;5.684;2023-05-09T03:55:50;17.80;78.30
42755;DHT22;28407;51.830;5.684;2023-05-09T03:57:52;17.80;78.30
42755;DHT22;28407;51.830;5.684;2023-05-09T03:59:53;17.80;78.40
42755;DHT22;28407;51.830;5.684;2023-05-09T04:01:53;17.70;78.40
42755;DHT22;28407;51.830;5.684;2023-05-09T04:03:57;17.80;78.40
42755;DHT22;28407;51.830;5.684;2023-05-09T04:05:58;17.80;78.50
42755;DHT22;28407;51.830;5.684;2023-05-09T04:08:09;17.80;78.50
42755;DHT22;28407;51.830;5.684;2023-05-09T04:10:10;17.80;78.50
42755;DHT22;28407;51.830;5.684;2023-05-09T04:12:11;17.70;78.40
42755;DHT22;28407;51.830;5.684;2023-05-09T04:14:12;17.70;78.50
42755;DHT22;28407;51.830;5.684;2023-05-09T04:16:12;17.70;78.50
42755;DHT22;28407;51.830;5.684;2023-05-09T04:18:13;17.70;78.60
42755;DHT22;28407;51.830;5.684;2023-05-09T04:20:13;17.70;78.60
42755;DHT22;28407;51.830;5.684;2023-05-09T04:22:16;17.70;78.60
42755;DHT22;28407;51.830;5.684;2023-05-09T04:24:17;17.70;78.70
42755;DHT22;28407;51.830;5.684;2023-05-09T04:26:20;17.60;78.60
42755;DHT22;28407;51.830;5.684;2023-05-09T04:28:23;17.60;78.70
42755;DHT22;28407;51.830;5.684;2023-05-09T04:30:24;17.60;78.80
42755;DHT22;28407;51.830;5.684;2023-05-09T04:32:26;17.60;78.80
42755;DHT22;28407;51.830;5.684;2023-05-09T04:34:28;17.60;78.80
42755;DHT22;28407;51.830;5.684;2023-05-09T04:36:31;17.60;78.80
42755;DHT22;28407;51.830;5.684;2023-05-09T04:38:33;17.60;78.80
42755;DHT22;28407;51.830;5.684;2023-05-09T04:40:34;17.60;78.80
42755;DHT22;28407;51.830;5.684;2023-05-09T04:42:35;17.60;78.70
42755;DHT22;28407;51.830;5.684;2023-05-09T04:44:36;17.60;78.80
42755;DHT22;28407;51.830;5.684;2023-05-09T04:46:37;17.60;79.40
42755;DHT22;28407;51.830;5.684;2023-05-09T04:48:38;17.60;78.80
42755;DHT22;28407;51.830;5.684;2023-05-09T04:50:39;17.60;78.80
42755;DHT22;28407;51.830;5.684;2023-05-09T04:52:40;17.60;78.80
42755;DHT22;28407;51.830;5.684;2023-05-09T04:54:41;17.60;78.80
42755;DHT22;28407;51.830;5.684;2023-05-09T04:56:42;17.50;78.90
42755;DHT22;28407;51.830;5.684;2023-05-09T04:58:42;17.50;78.90
42755;DHT22;28407;51.830;5.684;2023-05-09T05:00:44;17.50;78.90
42755;DHT22;28407;51.830;5.684;2023-05-09T05:02:45;17.50;79.00
42755;DHT22;28407;51.830;5.684;2023-05-09T05:04:46;17.50;79.10
42755;DHT22;28407;51.830;5.684;2023-05-09T05:06:47;17.50;79.10
42755;DHT22;28407;51.830;5.684;2023-05-09T05:08:48;17.50;79.10
42755;DHT22;28407;51.830;5.684;2023-05-09T05:10:49;17.50;79.10
42755;DHT22;28407;51.830;5.684;2023-05-09T05:12:51;17.50;79.10
42755;DHT22;28407;51.830;5.684;2023-05-09T05:14:52;17.50;79.10
42755;DHT22;28407;51.830;5.684;2023-05-09T05:16:55;17.50;79.10
42755;DHT22;28407;51.830;5.684;2023-05-09T05:18:57;17.50;79.10
42755;DHT22;28407;51.830;5.684;2023-05-09T05:20:58;17.50;79.00
42755;DHT22;28407;51.830;5.684;2023-05-09T05:22:59;17.50;79.00
42755;DHT22;28407;51.830;5.684;2023-05-09T05:25:00;17.50;78.90
42755;DHT22;28407;51.830;5.684;2023-05-09T05:27:03;17.60;79.00
42755;DHT22;28407;51.830;5.684;2023-05-09T05:29:04;17.60;79.00
42755;DHT22;28407;51.830;5.684;2023-05-09T05:31:05;17.60;78.90
42755;DHT22;28407;51.830;5.684;2023-05-09T05:33:06;17.60;78.90
42755;DHT22;28407;51.830;5.684;2023-05-09T05:35:07;17.60;78.90
42755;DHT22;28407;51.830;5.684;2023-05-09T05:37:10;17.60;78.90
42755;DHT22;28407;51.830;5.684;2023-05-09T05:39:11;17.60;78.80
42755;DHT22;28407;51.830;5.684;2023-05-09T05:41:12;17.60;78.80
42755;DHT22;28407;51.830;5.684;2023-05-09T05:43:15;17.70;78.80
42755;DHT22;28407;51.830;5.684;2023-05-09T05:45:16;17.60;78.70
42755;DHT22;28407;51.830;5.684;2023-05-09T05:47:20;17.60;78.80
42755;DHT22;28407;51.830;5.684;2023-05-09T05:49:21;17.70;78.80
42755;DHT22;28407;51.830;5.684;2023-05-09T05:51:24;17.60;78.70
42755;DHT22;28407;51.830;5.684;2023-05-09T05:53:25;17.70;78.80
42755;DHT22;28407;51.830;5.684;2023-05-09T05:55:26;17.70;78.70
42755;DHT22;28407;51.830;5.684;2023-05-09T05:57:26;17.70;78.70
42755;DHT22;28407;51.830;5.684;2023-05-09T05:59:27;17.80;78.60
42755;DHT22;28407;51.830;5.684;2023-05-09T06:01:28;17.80;78.50
42755;DHT22;28407;51.830;5.684;2023-05-09T06:03:28;17.80;78.50
42755;DHT22;28407;51.830;5.684;2023-05-09T06:05:42;17.80;78.40
42755;DHT22;28407;51.830;5.684;2023-05-09T06:07:44;17.80;78.50
42755;DHT22;28407;51.830;5.684;2023-05-09T06:09:45;17.80;78.40
42755;DHT22;28407;51.830;5.684;2023-05-09T06:11:45;17.80;78.40
42755;DHT22;28407;51.830;5.684;2023-05-09T06:13:46;17.80;78.40
42755;DHT22;28407;51.830;5.684;2023-05-09T06:15:46;17.80;78.40
42755;DHT22;28407;51.830;5.684;2023-05-09T06:17:47;17.80;78.40
42755;DHT22;28407;51.830;5.684;2023-05-09T06:19:48;17.80;78.40
42755;DHT22;28407;51.830;5.684;2023-05-09T06:21:48;17.80;78.40
42755;DHT22;28407;51.830;5.684;2023-05-09T06:23:49;17.80;78.40
42755;DHT22;28407;51.830;5.684;2023-05-09T06:25:50;17.90;78.40
42755;DHT22;28407;51.830;5.684;2023-05-09T06:27:50;17.90;78.30
42755;DHT22;28407;51.830;5.684;2023-05-09T06:29:51;17.90;78.20
42755;DHT22;28407;51.830;5.684;2023-05-09T06:31:52;18.00;78.20
42755;DHT22;28407;51.830;5.684;2023-05-09T06:33:52;18.00;78.10
42755;DHT22;28407;51.830;5.684;2023-05-09T06:35:53;18.00;78.00
42755;DHT22;28407;51.830;5.684;2023-05-09T06:37:53;18.00;78.00
42755;DHT22;28407;51.830;5.684;2023-05-09T06:39:54;18.00;77.90
42755;DHT22;28407;51.830;5.684;2023-05-09T06:41:55;18.10;78.00
42755;DHT22;28407;51.830;5.684;2023-05-09T06:44:04;18.10;78.00
42755;DHT22;28407;51.830;5.684;2023-05-09T06:46:05;18.10;77.90
42755;DHT22;28407;51.830;5.684;2023-05-09T06:48:05;18.10;78.00
42755;DHT22;28407;51.830;5.684;2023-05-09T06:50:07;18.10;77.90
42755;DHT22;28407;51.830;5.684;2023-05-09T06:52:07;18.10;78.00
42755;DHT22;28407;51.830;5.684;2023-05-09T06:54:08;18.10;77.90
42755;DHT22;28407;51.830;5.684;2023-05-09T06:56:09;18.10;77.90
42755;DHT22;28407;51.830;5.684;2023-05-09T06:58:10;18.10;77.90
42755;DHT22;28407;51.830;5.684;2023-05-09T07:00:11;18.10;77.90
42755;DHT22;28407;51.830;5.684;2023-05-09T07:02:12;18.10;77.90
42755;DHT22;28407;51.830;5.684;2023-05-09T07:04:13;18.20;77.90
42755;DHT22;28407;51.830;5.684;2023-05-09T07:06:13;18.20;77.90
42755;DHT22;28407;51.830;5.684;2023-05-09T07:08:14;18.20;77.80
42755;DHT22;28407;51.830;5.684;2023-05-09T07:10:15;18.20;77.90
42755;DHT22;28407;51.830;5.684;2023-05-09T07:12:15;18.20;77.80
42755;DHT22;28407;51.830;5.684;2023-05-09T07:14:16;18.20;77.80
42755;DHT22;28407;51.830;5.684;2023-05-09T07:16:17;18.20;77.80
42755;DHT22;28407;51.830;5.684;2023-05-09T07:18:17;18.20;77.80
42755;DHT22;28407;51.830;5.684;2023-05-09T07:20:18;18.20;77.80
42755;DHT22;28407;51.830;5.684;2023-05-09T07:22:18;18.20;77.80
42755;DHT22;28407;51.830;5.684;2023-05-09T07:24:19;18.20;77.80
42755;DHT22;28407;51.830;5.684;2023-05-09T07:26:20;18.20;77.80
42755;DHT22;28407;51.830;5.684;2023-05-09T07:28:21;18.20;77.80
42755;DHT22;28407;51.830;5.684;2023-05-09T07:30:22;18.20;77.70
42755;DHT22;28407;51.830;5.684;2023-05-09T07:32:22;18.20;77.80
42755;DHT22;28407;51.830;5.684;2023-05-09T07:34:23;18.20;77.80
42755;DHT22;28407;51.830;5.684;2023-05-09T07:36:24;18.20;77.70
42755;DHT22;28407;51.830;5.684;2023-05-09T07:38:25;18.20;77.70
42755;DHT22;28407;51.830;5.684;2023-05-09T07:40:26;18.20;77.70
42755;DHT22;28407;51.830;5.684;2023-05-09T07:42:26;18.30;78.40
42755;DHT22;28407;51.830;5.684;2023-05-09T07:44:27;18.30;77.70
42755;DHT22;28407;51.830;5.684;2023-05-09T07:46:28;18.30;77.70
42755;DHT22;28407;51.830;5.684;2023-05-09T07:48:29;18.40;77.70
42755;DHT22;28407;51.830;5.684;2023-05-09T07:50:29;18.40;77.50
42755;DHT22;28407;51.830;5.684;2023-05-09T07:52:30;18.40;77.50
42755;DHT22;28407;51.830;5.684;2023-05-09T07:54:31;18.40;77.50
42755;DHT22;28407;51.830;5.684;2023-05-09T07:56:31;18.40;77.50
42755;DHT22;28407;51.830;5.684;2023-05-09T07:58:32;18.40;77.50
42755;DHT22;28407;51.830;5.684;2023-05-09T08:00:33;18.40;77.50
42755;DHT22;28407;51.830;5.684;2023-05-09T08:02:33;18.40;77.60
42755;DHT22;28407;51.830;5.684;2023-05-09T08:04:34;18.40;77.60
42755;DHT22;28407;51.830;5.684;2023-05-09T08:06:37;18.50;77.60
42755;DHT22;28407;51.830;5.684;2023-05-09T08:08:38;18.50;77.60
42755;DHT22;28407;51.830;5.684;2023-05-09T08:10:38;18.50;77.60
42755;DHT22;28407;51.830;5.684;2023-05-09T08:12:39;18.50;77.50
42755;DHT22;28407;51.830;5.684;2023-05-09T08:14:39;18.50;77.50
42755;DHT22;28407;51.830;5.684;2023-05-09T08:16:40;18.50;77.50
42755;DHT22;28407;51.830;5.684;2023-05-09T08:18:43;18.50;77.40
42755;DHT22;28407;51.830;5.684;2023-05-09T08:20:43;18.50;77.40
42755;DHT22;28407;51.830;5.684;2023-05-09T08:22:44;18.50;77.40
42755;DHT22;28407;51.830;5.684;2023-05-09T08:24:45;18.60;77.40
42755;DHT22;28407;51.830;5.684;2023-05-09T08:26:46;18.60;77.30
42755;DHT22;28407;51.830;5.684;2023-05-09T08:28:47;18.50;77.20
42755;DHT22;28407;51.830;5.684;2023-05-09T08:30:51;18.60;77.20
42755;DHT22;28407;51.830;5.684;2023-05-09T08:32:51;18.50;77.10
42755;DHT22;28407;51.830;5.684;2023-05-09T08:34:52;18.50;77.10
42755;DHT22;28407;51.830;5.684;2023-05-09T08:36:53;18.60;77.20
42755;DHT22;28407;51.830;5.684;2023-05-09T08:38:53;18.60;77.20
42755;DHT22;28407;51.830;5.684;2023-05-09T08:41:00;18.60;77.20
42755;DHT22;28407;51.830;5.684;2023-05-09T08:43:02;18.50;77.10
42755;DHT22;28407;51.830;5.684;2023-05-09T08:45:08;18.60;77.20
42755;DHT22;28407;51.830;5.684;2023-05-09T08:47:10;18.50;77.20
42755;DHT22;28407;51.830;5.684;2023-05-09T08:49:11;18.50;77.20
42755;DHT22;28407;51.830;5.684;2023-05-09T08:51:12;18.50;77.20
42755;DHT22;28407;51.830;5.684;2023-05-09T08:53:15;18.50;77.20
42755;DHT22;28407;51.830;5.684;2023-05-09T08:55:16;18.50;77.20
42755;DHT22;28407;51.830;5.684;2023-05-09T08:57:16;18.50;77.20
42755;DHT22;28407;51.830;5.684;2023-05-09T08:59:17;18.50;77.10
42755;DHT22;28407;51.830;5.684;2023-05-09T09:01:19;18.60;77.20
42755;DHT22;28407;51.830;5.684;2023-05-09T09:03:20;18.50;77.10
42755;DHT22;28407;51.830;5.684;2023-05-09T09:05:22;18.50;77.10
42755;DHT22;28407;51.830;5.684;2023-05-09T09:07:23;18.50;77.10
42755;DHT22;28407;51.830;5.684;2023-05-09T09:09:25;18.60;77.10
42755;DHT22;28407;51.830;5.684;2023-05-09T09:11:27;18.50;77.00
42755;DHT22;28407;51.830;5.684;2023-05-09T09:13:29;18.60;77.00
42755;DHT22;28407;51.830;5.684;2023-05-09T09:15:33;18.60;76.90
42755;DHT22;28407;51.830;5.684;2023-05-09T09:17:36;18.60;76.90
42755;DHT22;28407;51.830;5.684;2023-05-09T09:19:43;18.60;76.90
42755;DHT22;28407;51.830;5.684;2023-05-09T09:21:45;18.70;77.00
42755;DHT22;28407;51.830;5.684;2023-05-09T09:23:47;18.70;76.90
42755;DHT22;28407;51.830;5.684;2023-05-09T09:25:48;18.70;76.90
42755;DHT22;28407;51.830;5.684;2023-05-09T09:27:48;18.80;76.90
42755;DHT22;28407;51.830;5.684;2023-05-09T09:29:49;18.80;76.80
42755;DHT22;28407;51.830;5.684;2023-05-09T09:31:52;18.80;76.70
42755;DHT22;28407;51.830;5.684;2023-05-09T09:34:00;18.80;76.70
42755;DHT22;28407;51.830;5.684;2023-05-09T09:36:01;18.70;77.20
42755;DHT22;28407;51.830;5.684;2023-05-09T09:38:05;18.70;76.50
42755;DHT22;28407;51.830;5.684;2023-05-09T09:40:10;18.70;76.50
42755;DHT22;28407;51.830;5.684;2023-05-09T09:42:11;18.70;76.60
42755;DHT22;28407;51.830;5.684;2023-05-09T09:44:16;18.70;76.70
42755;DHT22;28407;51.830;5.684;2023-05-09T09:46:17;18.70;77.40
42755;DHT22;28407;51.830;5.684;2023-05-09T09:48:25;18.70;76.90
42755;DHT22;28407;51.830;5.684;2023-05-09T09:50:26;18.70;76.90
42755;DHT22;28407;51.830;5.684;2023-05-09T09:52:27;18.70;76.90
42755;DHT22;28407;51.830;5.684;2023-05-09T09:54:28;18.70;77.00
42755;DHT22;28407;51.830;5.684;2023-05-09T09:58:39;18.70;77.20
42755;DHT22;28407;51.830;5.684;2023-05-09T10:00:40;18.70;77.20
42755;DHT22;28407;51.830;5.684;2023-05-09T10:02:57;18.70;77.20
42755;DHT22;28407;51.830;5.684;2023-05-09T10:05:07;18.70;77.30
42755;DHT22;28407;51.830;5.684;2023-05-09T10:07:09;18.70;77.40
42755;DHT22;28407;51.830;5.684;2023-05-09T10:09:09;18.70;77.50
42755;DHT22;28407;51.830;5.684;2023-05-09T10:11:10;18.70;77.50
42755;DHT22;28407;51.830;5.684;2023-05-09T10:13:11;18.60;77.50
42755;DHT22;28407;51.830;5.684;2023-05-09T10:15:15;18.70;77.70
42755;DHT22;28407;51.830;5.684;2023-05-09T10:17:20;18.60;77.70
42755;DHT22;28407;51.830;5.684;2023-05-09T10:19:23;18.60;77.90
42755;DHT22;28407;51.830;5.684;2023-05-09T10:21:24;18.60;78.10
42755;DHT22;28407;51.830;5.684;2023-05-09T10:23:27;18.60;78.20
42755;DHT22;28407;51.830;5.684;2023-05-09T10:25:38;18.50;78.20
42755;DHT22;28407;51.830;5.684;2023-05-09T10:27:44;18.40;78.20
42755;DHT22;28407;51.830;5.684;2023-05-09T10:29:50;18.40;78.30
42755;DHT22;28407;51.830;5.684;2023-05-09T10:31:58;18.30;78.40
42755;DHT22;28407;51.830;5.684;2023-05-09T10:34:00;18.20;78.60
42755;DHT22;28407;51.830;5.684;2023-05-09T10:36:05;18.20;78.80
42755;DHT22;28407;51.830;5.684;2023-05-09T10:38:06;18.20;78.80
42755;DHT22;28407;51.830;5.684;2023-05-09T10:40:10;18.10;78.80
42755;DHT22;28407;51.830;5.684;2023-05-09T10:42:14;18.10;78.90
42755;DHT22;28407;51.830;5.684;2023-05-09T10:44:15;18.10;79.10
42755;DHT22;28407;51.830;5.684;2023-05-09T10:46:16;18.10;79.20
42755;DHT22;28407;51.830;5.684;2023-05-09T10:48:17;18.10;79.20
42755;DHT22;28407;51.830;5.684;2023-05-09T10:50:19;18.00;79.30
42755;DHT22;28407;51.830;5.684;2023-05-09T10:52:21;18.00;79.30
42755;DHT22;28407;51.830;5.684;2023-05-09T10:54:29;18.00;79.30
42755;DHT22;28407;51.830;5.684;2023-05-09T10:56:33;18.00;79.50
42755;DHT22;28407;51.830;5.684;2023-05-09T10:58:35;18.00;79.50
42755;DHT22;28407;51.830;5.684;2023-05-09T11:00:40;18.00;79.50
42755;DHT22;28407;51.830;5.684;2023-05-09T11:02:41;18.00;79.50
42755;DHT22;28407;51.830;5.684;2023-05-09T11:05:16;18.00;79.50
42755;DHT22;28407;51.830;5.684;2023-05-09T11:07:25;18.00;79.50
42755;DHT22;28407;51.830;5.684;2023-05-09T11:09:34;18.00;79.50
42755;DHT22;28407;51.830;5.684;2023-05-09T11:11:53;17.90;79.50
42755;DHT22;28407;51.830;5.684;2023-05-09T11:13:57;17.90;79.50
42755;DHT22;28407;51.830;5.684;2023-05-09T11:18:08;18.00;79.70
42755;DHT22;28407;51.830;5.684;2023-05-09T11:20:09;17.90;79.60
42755;DHT22;28407;51.830;5.684;2023-05-09T11:22:13;17.90;79.70
42755;DHT22;28407;51.830;5.684;2023-05-09T11:24:17;18.00;79.80
42755;DHT22;28407;51.830;5.684;2023-05-09T11:26:20;18.00;79.90
42755;DHT22;28407;51.830;5.684;2023-05-09T11:28:26;18.00;79.90
42755;DHT22;28407;51.830;5.684;2023-05-09T11:30:40;18.00;79.90
42755;DHT22;28407;51.830;5.684;2023-05-09T11:32:59;18.00;80.00
42755;DHT22;28407;51.830;5.684;2023-05-09T11:35:08;18.00;80.20
42755;DHT22;28407;51.830;5.684;2023-05-09T11:37:10;17.90;80.30
42755;DHT22;28407;51.830;5.684;2023-05-09T11:39:11;17.90;80.30
42755;DHT22;28407;51.830;5.684;2023-05-09T11:41:12;17.90;80.30
42755;DHT22;28407;51.830;5.684;2023-05-09T11:43:13;17.90;80.40
42755;DHT22;28407;51.830;5.684;2023-05-09T11:45:14;17.90;80.40
42755;DHT22;28407;51.830;5.684;2023-05-09T11:47:15;17.90;80.50
42755;DHT22;28407;51.830;5.684;2023-05-09T11:49:16;17.90;80.50
42755;DHT22;28407;51.830;5.684;2023-05-09T11:51:19;17.90;80.60
42755;DHT22;28407;51.830;5.684;2023-05-09T11:53:19;17.90;80.60
42755;DHT22;28407;51.830;5.684;2023-05-09T11:55:20;17.90;80.70
42755;DHT22;28407;51.830;5.684;2023-05-09T11:57:21;17.90;80.80
42755;DHT22;28407;51.830;5.684;2023-05-09T11:59:22;17.90;80.90
42755;DHT22;28407;51.830;5.684;2023-05-09T12:01:24;17.80;80.90
42755;DHT22;28407;51.830;5.684;2023-05-09T12:03:25;17.80;81.00
42755;DHT22;28407;51.830;5.684;2023-05-09T12:05:25;17.80;81.10
42755;DHT22;28407;51.830;5.684;2023-05-09T12:07:26;17.80;81.20
42755;DHT22;28407;51.830;5.684;2023-05-09T12:09:33;17.80;81.30
42755;DHT22;28407;51.830;5.684;2023-05-09T12:11:33;17.80;81.40
42755;DHT22;28407;51.830;5.684;2023-05-09T12:13:47;17.80;81.40
42755;DHT22;28407;51.830;5.684;2023-05-09T12:15:48;17.70;81.50
42755;DHT22;28407;51.830;5.684;2023-05-09T12:18:03;17.70;81.40
42755;DHT22;28407;51.830;5.684;2023-05-09T12:20:04;17.70;81.50
42755;DHT22;28407;51.830;5.684;2023-05-09T12:22:05;17.70;81.50
42755;DHT22;28407;51.830;5.684;2023-05-09T12:24:06;17.70;81.50
42755;DHT22;28407;51.830;5.684;2023-05-09T12:26:07;17.70;81.60
42755;DHT22;28407;51.830;5.684;2023-05-09T12:28:08;17.70;81.60
42755;DHT22;28407;51.830;5.684;2023-05-09T12:30:10;17.70;81.70
42755;DHT22;28407;51.830;5.684;2023-05-09T12:32:13;17.70;81.70
42755;DHT22;28407;51.830;5.684;2023-05-09T12:34:15;17.70;81.60
42755;DHT22;28407;51.830;5.684;2023-05-09T12:36:15;17.70;81.60
42755;DHT22;28407;51.830;5.684;2023-05-09T12:38:20;17.70;81.70
42755;DHT22;28407;51.830;5.684;2023-05-09T12:40:22;17.70;81.70
42755;DHT22;28407;51.830;5.684;2023-05-09T12:42:22;17.70;81.60
42755;DHT22;28407;51.830;5.684;2023-05-09T12:44:26;17.80;81.70
42755;DHT22;28407;51.830;5.684;2023-05-09T12:46:28;17.80;81.70
42755;DHT22;28407;51.830;5.684;2023-05-09T12:48:33;17.70;81.70
42755;DHT22;28407;51.830;5.684;2023-05-09T12:50:34;17.80;81.80
42755;DHT22;28407;51.830;5.684;2023-05-09T12:52:38;17.70;81.70
42755;DHT22;28407;51.830;5.684;2023-05-09T12:54:45;17.70;81.90
42755;DHT22;28407;51.830;5.684;2023-05-09T12:56:45;17.70;82.00
42755;DHT22;28407;51.830;5.684;2023-05-09T12:58:52;17.70;81.90
42755;DHT22;28407;51.830;5.684;2023-05-09T13:00:53;17.70;82.00